createdAt,value
2023-01-29T00:02:27.883Z,3.22
2023-01-29T00:04:59.013Z,3.10
2023-01-29T00:07:27.197Z,3.10
2023-01-29T00:09:55.530Z,3.03
2023-01-29T00:12:23.530Z,2.88
2023-01-29T00:14:51.452Z,3.00
2023-01-29T00:17:19.361Z,3.30
2023-01-29T00:19:47.330Z,3.38
2023-01-29T00:22:15.153Z,3.20
2023-01-29T00:24:44.507Z,3.15
2023-01-29T00:27:12.545Z,2.90
2023-01-29T00:29:40.501Z,3.10
2023-01-29T00:32:08.454Z,2.80
2023-01-29T00:34:38.190Z,3.40
2023-01-29T00:37:09.111Z,3.25
2023-01-29T00:39:47.901Z,3.05
2023-01-29T00:42:34.464Z,2.83
2023-01-29T00:45:02.438Z,3.10
2023-01-29T00:47:36.648Z,3.00
2023-01-29T00:50:09.022Z,2.95
2023-01-29T00:52:36.994Z,2.90
2023-01-29T00:55:07.196Z,2.60
2023-01-29T00:57:36.446Z,3.33
2023-01-29T01:00:10.063Z,2.95
2023-01-29T01:02:56.809Z,2.80
2023-01-29T01:05:24.749Z,3.00
2023-01-29T01:07:56.198Z,3.20
2023-01-29T01:10:31.066Z,3.10
2023-01-29T01:13:01.682Z,3.05
2023-01-29T01:15:36.624Z,2.90
2023-01-29T01:18:05.503Z,2.78
2023-01-29T01:20:35.696Z,2.88
2023-01-29T01:23:04.190Z,2.97
2023-01-29T01:25:32.226Z,3.67
2023-01-29T01:28:03.210Z,2.80
2023-01-29T01:30:31.302Z,2.95
2023-01-29T01:32:59.878Z,2.90
2023-01-29T01:35:27.851Z,2.90
2023-01-29T01:37:55.724Z,2.80
2023-01-29T01:40:25.782Z,2.90
2023-01-29T01:42:58.935Z,2.83
2023-01-29T01:45:33.244Z,3.07
2023-01-29T01:48:06.030Z,2.88
2023-01-29T01:50:48.959Z,2.80
2023-01-29T01:53:30.733Z,3.30
2023-01-29T01:56:05.302Z,2.97
2023-01-29T01:58:59.506Z,2.85
2023-01-29T02:01:30.876Z,2.55
2023-01-29T02:04:23.379Z,3.05
2023-01-29T02:07:11.314Z,3.00
2023-01-29T02:09:53.658Z,2.70
2023-01-29T02:12:23.348Z,2.77
2023-01-29T02:14:52.766Z,3.08
2023-01-29T02:17:21.037Z,3.00
2023-01-29T02:20:20.991Z,2.75
2023-01-29T02:23:03.661Z,2.58
2023-01-29T02:25:59.364Z,3.08
2023-01-29T02:28:39.030Z,2.80
2023-01-29T02:31:14.839Z,3.03
2023-01-29T02:33:56.084Z,3.03
2023-01-29T02:36:32.898Z,2.60
2023-01-29T02:39:09.684Z,2.88
2023-01-29T02:41:52.656Z,2.97
2023-01-29T02:44:44.729Z,2.92
2023-01-29T02:47:33.412Z,2.70
2023-01-29T02:50:13.240Z,2.95
2023-01-29T02:52:50.938Z,2.63
2023-01-29T02:55:45.655Z,2.80
2023-01-29T02:58:56.672Z,2.65
2023-01-29T03:01:55.797Z,2.80
2023-01-29T03:04:29.430Z,2.90
2023-01-29T03:09:34.250Z,2.60
2023-01-29T03:12:19.863Z,2.95
2023-01-29T03:15:09.955Z,2.75
2023-01-29T03:17:53.488Z,2.65
2023-01-29T03:20:36.901Z,2.70
2023-01-29T03:23:27.397Z,2.75
2023-01-29T03:26:18.150Z,2.97
2023-01-29T03:29:06.250Z,2.72
2023-01-29T03:31:55.397Z,2.75
2023-01-29T03:34:34.796Z,2.92
2023-01-29T03:37:09.494Z,2.67
2023-01-29T03:42:18.255Z,2.55
2023-01-29T03:45:14.808Z,2.90
2023-01-29T03:48:10.614Z,2.78
2023-01-29T03:50:54.483Z,3.30
2023-01-29T03:53:28.313Z,2.70
2023-01-29T03:56:08.766Z,2.72
2023-01-29T03:58:40.355Z,2.88
2023-01-29T04:01:18.667Z,2.90
2023-01-29T04:03:54.776Z,2.63
2023-01-29T04:06:26.257Z,2.97
2023-01-29T04:09:14.809Z,2.90
2023-01-29T04:12:14.011Z,2.60
2023-01-29T04:14:46.558Z,2.75
2023-01-29T04:17:25.773Z,2.70
2023-01-29T04:20:03.726Z,3.08
2023-01-29T04:22:39.698Z,3.05
2023-01-29T04:25:16.025Z,2.92
2023-01-29T04:28:04.056Z,2.97
2023-01-29T04:30:56.413Z,2.90
2023-01-29T04:33:40.560Z,2.60
2023-01-29T04:36:14.730Z,2.53
2023-01-29T04:38:59.734Z,2.53
2023-01-29T04:42:15.074Z,2.78
2023-01-29T04:45:07.521Z,2.58
2023-01-29T04:47:47.330Z,2.72
2023-01-29T04:50:33.446Z,2.72
2023-01-29T04:53:07.994Z,2.90
2023-01-29T04:55:38.514Z,2.70
2023-01-29T04:58:13.132Z,2.95
2023-01-29T05:00:44.062Z,2.63
2023-01-29T05:03:14.920Z,3.03
2023-01-29T05:05:46.906Z,2.63
2023-01-29T05:08:19.769Z,2.50
2023-01-29T05:10:50.504Z,2.60
2023-01-29T05:13:20.629Z,2.70
2023-01-29T05:15:59.969Z,2.70
2023-01-29T05:18:29.747Z,3.03
2023-01-29T05:20:59.220Z,2.85
2023-01-29T05:23:27.093Z,2.80
2023-01-29T05:25:57.021Z,2.75
2023-01-29T05:28:24.979Z,3.15
2023-01-29T05:30:55.531Z,2.78
2023-01-29T05:33:31.521Z,2.55
2023-01-29T05:36:00.417Z,2.80
2023-01-29T05:38:28.904Z,2.90
2023-01-29T05:40:59.336Z,2.83
2023-01-29T05:43:27.441Z,2.80
2023-01-29T05:46:00.184Z,2.53
2023-01-29T05:48:29.978Z,2.53
2023-01-29T05:51:01.745Z,2.95
2023-01-29T05:53:30.529Z,2.60
2023-01-29T05:56:02.291Z,2.72
2023-01-29T05:58:33.736Z,2.80
2023-01-29T06:01:22.674Z,2.90
2023-01-29T06:03:50.565Z,2.75
2023-01-29T06:06:18.402Z,2.72
2023-01-29T06:08:47.063Z,2.80
2023-01-29T06:11:16.549Z,2.45
2023-01-29T06:13:45.442Z,2.97
2023-01-29T06:16:14.049Z,2.78
2023-01-29T06:18:42.260Z,2.78
2023-01-29T06:21:12.502Z,2.55
2023-01-29T06:23:40.900Z,2.67
2023-01-29T06:26:13.148Z,2.67
2023-01-29T06:28:41.497Z,2.60
2023-01-29T06:31:37.871Z,2.78
2023-01-29T06:33:58.756Z,2.70
2023-01-29T06:36:26.448Z,2.80
2023-01-29T06:38:54.384Z,2.60
2023-01-29T06:41:25.513Z,2.83
2023-01-29T06:43:53.566Z,2.78
2023-01-29T06:46:21.768Z,2.63
2023-01-29T06:48:49.592Z,2.70
2023-01-29T06:51:17.528Z,2.92
2023-01-29T06:53:46.467Z,2.80
2023-01-29T06:56:14.907Z,2.70
2023-01-29T06:58:43.757Z,2.65
2023-01-29T07:01:17.501Z,2.70
2023-01-29T07:03:53.899Z,2.72
2023-01-29T07:06:22.492Z,2.88
2023-01-29T07:08:50.314Z,2.78
2023-01-29T07:11:19.098Z,2.65
2023-01-29T07:13:46.970Z,2.97
2023-01-29T07:16:14.853Z,2.75
2023-01-29T07:18:43.052Z,2.80
2023-01-29T07:21:10.953Z,3.00
2023-01-29T07:23:38.748Z,2.67
2023-01-29T07:26:07.546Z,2.60
2023-01-29T07:28:39.506Z,2.70
2023-01-29T07:31:08.386Z,2.67
2023-01-29T07:33:36.270Z,2.63
2023-01-29T07:36:08.506Z,2.80
2023-01-29T07:38:36.394Z,2.47
2023-01-29T07:41:04.418Z,2.63
2023-01-29T07:43:32.943Z,3.10
2023-01-29T07:46:04.802Z,2.70
2023-01-29T07:48:32.807Z,2.92
2023-01-29T07:51:00.910Z,2.42
2023-01-29T07:53:29.232Z,2.65
2023-01-29T07:55:57.483Z,2.70
2023-01-29T07:58:25.398Z,2.20
2023-01-29T08:00:53.651Z,2.50
2023-01-29T08:03:21.821Z,2.70
2023-01-29T08:05:50.159Z,2.85
2023-01-29T08:08:19.469Z,2.40
2023-01-29T08:10:47.348Z,2.40
2023-01-29T08:13:15.276Z,2.78
2023-01-29T08:15:45.516Z,2.30
2023-01-29T08:18:14.736Z,2.70
2023-01-29T08:20:42.870Z,2.50
2023-01-29T08:23:16.462Z,2.70
2023-01-29T08:25:44.880Z,2.63
2023-01-29T08:28:13.389Z,2.42
2023-01-29T08:30:42.285Z,2.92
2023-01-29T08:33:11.620Z,2.50
2023-01-29T08:35:41.511Z,2.45
2023-01-29T08:38:10.764Z,2.50
2023-01-29T08:40:39.185Z,2.88
2023-01-29T08:43:09.448Z,2.60
2023-01-29T08:45:40.394Z,2.80
2023-01-29T08:48:09.432Z,2.53
2023-01-29T08:50:37.743Z,2.60
2023-01-29T08:53:08.087Z,2.58
2023-01-29T08:55:40.801Z,3.08
2023-01-29T08:58:11.461Z,2.70
2023-01-29T09:00:39.936Z,2.58
2023-01-29T09:03:08.906Z,2.85
2023-01-29T09:05:38.720Z,2.53
2023-01-29T09:08:10.079Z,2.80
2023-01-29T09:10:38.382Z,2.55
2023-01-29T09:13:06.739Z,2.60
2023-01-29T09:15:35.495Z,2.70
2023-01-29T09:18:05.362Z,2.75
2023-01-29T09:20:34.535Z,2.67
2023-01-29T09:23:07.737Z,2.78
2023-01-29T09:25:36.433Z,2.70
2023-01-29T09:28:05.326Z,2.70
2023-01-29T09:30:35.009Z,2.42
2023-01-29T09:33:03.979Z,2.50
2023-01-29T09:35:32.267Z,2.30
2023-01-29T09:38:01.019Z,2.70
2023-01-29T09:40:52.043Z,2.67
2023-01-29T09:43:35.431Z,2.60
2023-01-29T09:46:35.621Z,2.50
2023-01-29T09:49:23.989Z,2.50
2023-01-29T09:52:16.461Z,2.53
2023-01-29T09:55:09.263Z,2.80
2023-01-29T09:57:48.919Z,2.65
2023-01-29T10:00:50.483Z,2.40
2023-01-29T10:03:36.569Z,2.55
2023-01-29T10:06:43.064Z,2.78
2023-01-29T10:09:20.559Z,2.35
2023-01-29T10:12:12.413Z,2.67
2023-01-29T10:14:53.553Z,2.60
2023-01-29T10:17:55.014Z,2.40
2023-01-29T10:20:46.306Z,2.40
2023-01-29T10:23:49.504Z,2.53
2023-01-29T10:26:21.702Z,2.65
2023-01-29T10:28:53.503Z,2.45
2023-01-29T10:31:38.869Z,2.53
2023-01-29T10:34:26.633Z,2.50
2023-01-29T10:36:59.995Z,2.30
2023-01-29T10:39:31.795Z,2.67
2023-01-29T10:42:14.051Z,2.55
2023-01-29T10:45:06.520Z,2.30
2023-01-29T10:47:47.135Z,2.50
2023-01-29T10:50:28.989Z,2.50
2023-01-29T10:53:09.116Z,2.67
2023-01-29T10:56:21.993Z,2.40
2023-01-29T10:59:05.796Z,2.88
2023-01-29T11:01:34.361Z,2.53
2023-01-29T11:04:05.346Z,2.60
2023-01-29T11:06:37.381Z,2.55
2023-01-29T11:09:27.091Z,2.70
2023-01-29T11:12:01.096Z,2.38
2023-01-29T11:14:44.958Z,2.70
2023-01-29T11:17:22.405Z,2.58
2023-01-29T11:19:53.335Z,2.70
2023-01-29T11:22:31.416Z,2.40
2023-01-29T11:25:20.405Z,2.55
2023-01-29T11:27:53.408Z,2.35
2023-01-29T11:30:39.809Z,2.50
2023-01-29T11:33:08.737Z,2.38
2023-01-29T11:35:37.810Z,2.28
2023-01-29T11:38:16.498Z,2.30
2023-01-29T11:40:45.739Z,2.30
2023-01-29T11:43:34.394Z,2.70
2023-01-29T11:46:11.725Z,2.55
2023-01-29T11:48:48.480Z,2.70
2023-01-29T11:51:26.579Z,2.50
2023-01-29T11:54:01.398Z,2.60
2023-01-29T11:56:45.872Z,2.20
2023-01-29T11:59:37.620Z,2.50
2023-01-29T12:02:31.938Z,2.65
2023-01-29T12:05:13.501Z,2.40
2023-01-29T12:07:45.557Z,2.35
2023-01-29T12:10:38.142Z,2.40
2023-01-29T12:13:20.224Z,2.22
2023-01-29T12:15:54.534Z,2.50
2023-01-29T12:18:46.909Z,2.20
2023-01-29T12:21:41.675Z,2.58
2023-01-29T12:24:20.655Z,2.33
2023-01-29T12:27:02.983Z,2.22
2023-01-29T12:29:48.735Z,2.30
2023-01-29T12:32:36.131Z,2.42
2023-01-29T12:35:34.601Z,2.38
2023-01-29T12:38:21.013Z,2.30
2023-01-29T12:41:00.309Z,2.30
2023-01-29T12:43:36.143Z,2.58
2023-01-29T12:46:10.816Z,2.30
2023-01-29T12:48:43.300Z,2.20
2023-01-29T12:51:22.194Z,2.28
2023-01-29T12:53:57.716Z,2.40
2023-01-29T12:56:44.347Z,2.10
2023-01-29T12:59:31.786Z,2.50
2023-01-29T13:02:12.280Z,2.25
2023-01-29T13:04:51.949Z,2.50
2023-01-29T13:07:31.924Z,2.50
2023-01-29T13:10:10.951Z,2.30
2023-01-29T13:12:45.026Z,2.60
2023-01-29T13:15:23.624Z,2.33
2023-01-29T13:17:58.989Z,2.25
2023-01-29T13:20:32.446Z,2.38
2023-01-29T13:23:28.990Z,2.38
2023-01-29T13:25:58.121Z,2.00
2023-01-29T13:28:28.338Z,2.42
2023-01-29T13:31:15.071Z,2.30
2023-01-29T13:33:52.549Z,2.33
2023-01-29T13:36:26.658Z,2.20
2023-01-29T13:39:01.606Z,2.20
2023-01-29T13:41:38.961Z,2.17
2023-01-29T13:44:19.436Z,2.50
2023-01-29T13:46:56.428Z,2.20
2023-01-29T13:49:36.010Z,2.15
2023-01-29T13:52:34.521Z,2.20
2023-01-29T13:55:07.201Z,2.30
2023-01-29T13:57:44.578Z,2.20
2023-01-29T14:00:22.004Z,2.10
2023-01-29T14:02:56.554Z,2.40
2023-01-29T14:05:30.944Z,2.40
2023-01-29T14:08:05.777Z,2.30
2023-01-29T14:10:36.384Z,2.40
2023-01-29T14:13:04.628Z,2.42
2023-01-29T14:15:37.843Z,2.20
2023-01-29T14:18:09.015Z,2.07
2023-01-29T14:21:01.958Z,2.10
2023-01-29T14:23:44.274Z,2.47
2023-01-29T14:26:32.672Z,1.98
2023-01-29T14:29:04.038Z,2.22
2023-01-29T14:31:44.234Z,2.40
2023-01-29T14:34:34.617Z,2.40
2023-01-29T14:37:25.407Z,2.22
2023-01-29T14:39:58.118Z,2.15
2023-01-29T14:42:26.562Z,1.95
2023-01-29T14:44:55.129Z,2.35
2023-01-29T14:47:26.272Z,2.03
2023-01-29T14:50:24.229Z,2.50
2023-01-29T14:52:56.987Z,2.60
2023-01-29T14:55:38.189Z,2.38
2023-01-29T14:58:13.091Z,2.05
2023-01-29T15:00:44.715Z,2.15
2023-01-29T15:03:46.900Z,2.10
2023-01-29T15:06:29.745Z,2.17
2023-01-29T15:09:13.191Z,2.50
2023-01-29T15:11:56.445Z,2.40
2023-01-29T15:14:44.885Z,2.30
2023-01-29T15:17:33.630Z,2.15
2023-01-29T15:20:02.308Z,2.30
2023-01-29T15:22:33.291Z,1.95
2023-01-29T15:25:15.704Z,2.22
2023-01-29T15:27:47.158Z,2.35
2023-01-29T15:30:38.169Z,2.20
2023-01-29T15:33:10.787Z,2.20
2023-01-29T15:35:42.317Z,2.00
2023-01-29T15:38:26.549Z,2.05
2023-01-29T15:40:57.257Z,2.17
2023-01-29T15:43:28.367Z,2.08
2023-01-29T15:46:00.628Z,2.35
2023-01-29T15:48:35.900Z,2.08
2023-01-29T15:51:08.755Z,2.20
2023-01-29T15:53:58.020Z,2.00
2023-01-29T15:56:32.556Z,1.98
2023-01-29T15:59:07.308Z,1.98
2023-01-29T16:01:38.157Z,1.92
2023-01-29T16:04:09.720Z,1.92
2023-01-29T16:06:41.282Z,2.10
2023-01-29T16:09:18.444Z,2.00
2023-01-29T16:11:48.669Z,2.30
2023-01-29T16:14:22.160Z,2.10
2023-01-29T16:16:50.669Z,2.10
2023-01-29T16:19:27.394Z,1.92
2023-01-29T16:22:04.331Z,2.03
2023-01-29T16:24:35.488Z,1.95
2023-01-29T16:27:14.358Z,2.17
2023-01-29T16:29:42.861Z,2.20
2023-01-29T16:32:14.139Z,1.85
2023-01-29T16:34:45.717Z,2.10
2023-01-29T16:37:24.640Z,1.80
2023-01-29T16:39:53.324Z,2.00
2023-01-29T16:42:25.500Z,2.20
2023-01-29T16:45:02.754Z,1.95
2023-01-29T16:47:39.611Z,2.03
2023-01-29T16:50:38.268Z,2.20
2023-01-29T16:53:20.108Z,1.80
2023-01-29T16:55:50.460Z,1.90
2023-01-29T16:58:25.331Z,2.10
2023-01-29T17:01:01.510Z,2.15
2023-01-29T17:03:33.935Z,1.77
2023-01-29T17:06:21.731Z,2.00
2023-01-29T17:08:51.031Z,1.90
2023-01-29T17:11:45.266Z,1.70
2023-01-29T17:14:20.139Z,2.00
2023-01-29T17:17:02.688Z,2.15
2023-01-29T17:19:31.047Z,2.00
2023-01-29T17:21:59.945Z,2.05
2023-01-29T17:24:28.351Z,1.70
2023-01-29T17:26:57.851Z,2.10
2023-01-29T17:29:31.919Z,1.80
2023-01-29T17:32:00.465Z,2.17
2023-01-29T17:34:29.315Z,2.03
2023-01-29T17:36:58.096Z,1.80
2023-01-29T17:39:26.794Z,1.95
2023-01-29T17:41:58.257Z,2.20
2023-01-29T17:44:27.013Z,2.05
2023-01-29T17:46:55.751Z,2.03
2023-01-29T17:49:32.881Z,2.10
2023-01-29T17:52:01.773Z,1.77
2023-01-29T17:54:30.441Z,1.85
2023-01-29T17:56:59.010Z,1.77
2023-01-29T17:59:32.576Z,1.77
2023-01-29T18:02:01.237Z,1.60
2023-01-29T18:04:30.147Z,1.80
2023-01-29T18:06:58.739Z,2.20
2023-01-29T18:09:28.358Z,1.70
2023-01-29T18:11:56.748Z,2.10
2023-01-29T18:14:25.480Z,1.95
2023-01-29T18:16:55.998Z,1.70
2023-01-29T18:19:31.455Z,1.75
2023-01-29T18:22:01.129Z,1.80
2023-01-29T18:24:30.554Z,1.90
2023-01-29T18:26:59.025Z,1.55
2023-01-29T18:29:30.518Z,2.10
2023-01-29T18:31:59.387Z,1.90
2023-01-29T18:34:27.911Z,1.65
2023-01-29T18:36:56.429Z,1.85
2023-01-29T18:39:25.124Z,2.10
2023-01-29T18:41:53.516Z,1.83
2023-01-29T18:44:22.066Z,2.13
2023-01-29T18:46:50.665Z,1.90
2023-01-29T18:49:19.275Z,1.60
2023-01-29T18:51:47.750Z,2.00
2023-01-29T18:54:18.581Z,1.80
2023-01-29T18:57:13.449Z,1.73
2023-01-29T18:59:35.761Z,2.03
2023-01-29T19:02:04.649Z,2.10
2023-01-29T19:04:33.189Z,1.80
2023-01-29T19:07:01.554Z,2.28
2023-01-29T19:09:29.971Z,1.70
2023-01-29T19:11:58.521Z,1.98
2023-01-29T19:14:27.218Z,1.98
2023-01-29T19:16:55.783Z,1.80
2023-01-29T19:19:24.157Z,1.70
2023-01-29T19:21:54.674Z,1.75
2023-01-29T19:24:24.377Z,1.80
2023-01-29T19:26:52.822Z,1.80
2023-01-29T19:29:21.474Z,1.83
2023-01-29T19:31:49.778Z,1.63
2023-01-29T19:34:18.775Z,1.70
2023-01-29T19:36:47.211Z,1.60
2023-01-29T19:39:16.386Z,1.80
2023-01-29T19:41:44.835Z,1.80
2023-01-29T19:44:13.471Z,1.75
2023-01-29T19:46:42.143Z,1.80
2023-01-29T19:49:10.802Z,1.80
2023-01-29T19:51:40.415Z,2.00
2023-01-29T19:54:09.834Z,1.75
2023-01-29T19:56:38.461Z,1.77
2023-01-29T19:59:07.753Z,1.70
2023-01-29T20:01:36.577Z,1.77
2023-01-29T20:04:04.919Z,1.90
2023-01-29T20:06:33.454Z,1.80
2023-01-29T20:09:03.282Z,1.73
2023-01-29T20:11:32.791Z,1.67
2023-01-29T20:14:01.088Z,1.65
2023-01-29T20:16:29.471Z,1.90
2023-01-29T20:19:13.934Z,1.92
2023-01-29T20:21:49.263Z,1.77
2023-01-29T20:24:17.879Z,2.00
2023-01-29T20:26:46.289Z,1.90
2023-01-29T20:29:15.755Z,1.90
2023-01-29T20:31:44.343Z,1.70
2023-01-29T20:34:12.767Z,1.88
2023-01-29T20:36:41.134Z,1.90
2023-01-29T20:39:09.671Z,2.22
2023-01-29T20:41:42.031Z,1.77
2023-01-29T20:44:11.631Z,1.80
2023-01-29T20:46:40.232Z,1.42
2023-01-29T20:49:09.263Z,2.00
2023-01-29T20:51:38.139Z,1.52
2023-01-29T20:54:07.475Z,1.45
2023-01-29T20:56:38.369Z,2.08
2023-01-29T20:59:15.503Z,2.17
2023-01-29T21:01:44.715Z,1.90
2023-01-29T21:04:12.707Z,1.65
2023-01-29T21:06:40.548Z,1.50
2023-01-29T21:09:08.597Z,2.05
2023-01-29T21:11:36.604Z,1.77
2023-01-29T21:14:04.815Z,2.13
2023-01-29T21:16:32.779Z,2.00
2023-01-29T21:19:00.677Z,2.00
2023-01-29T21:21:28.563Z,1.70
2023-01-29T21:23:58.293Z,1.60
2023-01-29T21:26:26.817Z,1.98
2023-01-29T21:28:55.299Z,1.85
2023-01-29T21:31:24.211Z,2.03
2023-01-29T21:33:52.857Z,1.85
2023-01-29T21:36:23.904Z,1.90
2023-01-29T21:38:51.812Z,2.10
2023-01-29T21:41:39.762Z,1.73
2023-01-29T21:44:07.986Z,1.80
2023-01-29T21:46:36.054Z,1.73
2023-01-29T21:49:04.975Z,1.70
2023-01-29T21:51:32.770Z,1.73
2023-01-29T21:54:03.876Z,1.70
2023-01-29T21:56:32.472Z,1.80
2023-01-29T21:59:02.455Z,1.70
2023-01-29T22:01:37.412Z,1.90
2023-01-29T22:04:08.709Z,1.88
2023-01-29T22:06:36.699Z,1.95
2023-01-29T22:09:04.850Z,1.77
2023-01-29T22:11:32.887Z,2.15
2023-01-29T22:14:01.063Z,1.95
2023-01-29T22:16:30.024Z,1.60
2023-01-29T22:18:57.980Z,2.00
2023-01-29T22:21:25.857Z,1.80
2023-01-29T22:23:54.141Z,1.88
2023-01-29T22:26:22.289Z,1.90
2023-01-29T22:28:57.237Z,1.98
2023-01-29T22:31:25.141Z,1.75
2023-01-29T22:33:53.621Z,1.80
2023-01-29T22:36:21.670Z,1.88
2023-01-29T22:38:49.541Z,1.52
2023-01-29T22:41:17.644Z,1.90
2023-01-29T22:43:45.628Z,1.80
2023-01-29T22:46:13.565Z,1.73
2023-01-29T22:48:41.512Z,1.73
2023-01-29T22:51:10.858Z,1.77
2023-01-29T22:53:40.865Z,1.98
2023-01-29T22:56:09.229Z,1.50
2023-01-29T22:58:37.654Z,1.85
2023-01-29T23:01:05.723Z,1.85
2023-01-29T23:03:33.886Z,1.88
2023-01-29T23:06:02.625Z,1.60
2023-01-29T23:08:32.899Z,1.70
2023-01-29T23:11:15.752Z,1.90
2023-01-29T23:13:48.773Z,1.63
2023-01-29T23:16:17.582Z,2.03
2023-01-29T23:18:45.652Z,1.90
2023-01-29T23:21:13.654Z,2.08
2023-01-29T23:23:43.112Z,1.65
2023-01-29T23:26:32.623Z,1.70
2023-01-29T23:29:00.802Z,1.98
2023-01-29T23:31:28.702Z,1.70
2023-01-29T23:33:56.590Z,1.85
2023-01-29T23:36:24.439Z,1.67
2023-01-29T23:38:52.281Z,1.77
2023-01-29T23:41:20.200Z,1.65
2023-01-29T23:43:48.062Z,1.85
2023-01-29T23:46:15.902Z,1.70
2023-01-29T23:48:43.744Z,1.70
2023-01-29T23:51:11.632Z,2.00
2023-01-29T23:53:39.481Z,1.80
2023-01-29T23:56:07.742Z,1.85
2023-01-29T23:58:35.737Z,1.73
